Time;durP1;ratioP1;P1;durP2;ratioP2;P2;SDS_P1;SDS_P2;PMS_P1;PMS_P2;Temp;Humidity;BMP_temperature;BMP_pressure;BME280_temperature;BME280_humidity;BME280_pressure;Samples;Min_cycle;Max_cycle;Signal;HPM_P1;HPM_P2
2022/03/04 22:17:01;;;;;;;20.93;9.87;;;2.20;99.90;;;;;;2505416;23;20238;-75
2022/03/04 22:19:29;;;;;;;19.97;9.37;;;2.40;99.90;;;;;;4934600;29;20299;-79
2022/03/04 22:21:56;;;;;;;19.23;9.33;;;2.40;99.90;;;;;;4935677;29;20209;-78
2022/03/04 22:24:22;;;;;;;21.40;8.43;;;2.30;99.90;;;;;;4934102;29;20229;-73
2022/03/04 22:26:52;;;;;;;17.90;8.93;;;2.30;99.90;;;;;;4926259;29;20206;-73
2022/03/04 22:29:19;;;;;;;20.93;9.27;;;2.20;99.90;;;;;;4926023;29;20292;-78
2022/03/04 22:31:45;;;;;;;23.90;9.67;;;2.30;99.90;;;;;;4916633;29;20473;-78
2022/03/04 22:34:12;;;;;;;21.43;10.17;;;2.20;99.90;;;;;;4933440;29;20611;-74
2022/03/04 22:36:40;;;;;;;20.37;10.17;;;2.10;99.90;;;;;;4939307;29;20227;-74
2022/03/04 22:39:07;;;;;;;23.50;9.50;;;2.10;99.90;;;;;;4939441;29;20223;-73
2022/03/04 22:41:34;;;;;;;18.50;9.23;;;2.10;99.90;;;;;;4939350;29;20217;-73
2022/03/04 22:44:02;;;;;;;19.33;9.90;;;1.90;99.90;;;;;;4939148;29;20232;-73
2022/03/04 22:46:28;;;;;;;17.77;9.00;;;2.00;99.90;;;;;;4922314;29;20217;-71
2022/03/04 22:48:55;;;;;;;22.33;10.00;;;2.00;99.90;;;;;;4919829;29;20224;-71
2022/03/04 22:51:22;;;;;;;18.83;9.10;;;2.00;99.90;;;;;;4920182;29;20221;-72
2022/03/04 22:53:50;;;;;;;20.13;9.60;;;2.00;99.90;;;;;;4919892;29;20234;-71
2022/03/04 22:56:17;;;;;;;17.70;9.20;;;2.00;99.90;;;;;;4920280;29;20225;-71
2022/03/04 22:58:43;;;;;;;23.37;8.83;;;2.00;99.90;;;;;;4919857;29;20213;-71
2022/03/04 23:01:27;;;;;;;20.60;8.80;;;1.90;99.90;;;;;;4919849;29;20214;-71
2022/03/04 23:09:26;;;;;;;24.37;8.87;;;2.00;99.90;;;;;;4919660;29;20236;-71
2022/03/04 23:11:52;;;;;;;22.20;9.23;;;1.90;99.90;;;;;;4919669;29;20295;-73
2022/03/04 23:14:19;;;;;;;19.83;8.93;;;1.70;99.90;;;;;;4922862;29;20230;-72
2022/03/04 23:16:47;;;;;;;19.93;8.80;;;1.70;99.90;;;;;;4934945;29;20224;-77
2022/03/04 23:19:16;;;;;;;14.57;7.90;;;1.70;99.90;;;;;;4938083;29;20216;-72
2022/03/04 23:21:44;;;;;;;20.57;9.13;;;1.70;99.90;;;;;;4938282;29;20213;-72
2022/03/04 23:24:11;;;;;;;18.43;7.93;;;1.70;99.90;;;;;;4925028;29;20708;-73
2022/03/04 23:26:40;;;;;;;18.33;8.77;;;1.70;99.90;;;;;;4919341;29;20230;-73
2022/03/04 23:29:08;;;;;;;19.23;8.20;;;1.70;99.90;;;;;;4919435;29;20668;-73
2022/03/04 23:31:36;;;;;;;15.57;7.77;;;1.70;99.90;;;;;;4919290;29;20269;-73
2022/03/04 23:34:03;;;;;;;16.00;8.30;;;1.70;99.90;;;;;;4919253;29;20233;-73
2022/03/04 23:36:30;;;;;;;18.27;8.00;;;1.60;99.90;;;;;;4919300;29;20213;-78
2022/03/04 23:38:56;;;;;;;17.50;7.83;;;1.60;99.90;;;;;;4919280;29;20212;-79
2022/03/04 23:41:23;;;;;;;17.97;8.10;;;1.50;99.90;;;;;;4922536;29;20216;-78
2022/03/04 23:43:52;;;;;;;16.33;8.47;;;1.60;99.90;;;;;;4929322;29;20305;-77
2022/03/04 23:46:19;;;;;;;21.17;9.03;;;1.70;99.90;;;;;;4937582;29;20235;-79
2022/03/04 23:48:46;;;;;;;17.83;9.03;;;1.70;99.90;;;;;;4938075;29;20228;-73
2022/03/04 23:51:13;;;;;;;15.47;7.60;;;1.70;99.90;;;;;;4938085;29;20240;-79
2022/03/04 23:53:40;;;;;;;18.50;7.53;;;1.60;99.90;;;;;;4937670;29;20233;-78
2022/03/04 23:56:07;;;;;;;17.97;8.03;;;1.50;99.90;;;;;;4937882;29;20236;-73
2022/03/04 23:58:35;;;;;;;16.20;7.57;;;1.40;99.90;;;;;;4937948;29;20257;-79
